Time;durP1;ratioP1;P1;durP2;ratioP2;P2;SDS_P1;SDS_P2;PMS_P1;PMS_P2;Temp;Humidity;BMP_temperature;BMP_pressure;BME280_temperature;BME280_humidity;BME280_pressure;Samples;Min_cycle;Max_cycle;Signal;HPM_P1;HPM_P2
2023/03/13 00:00:46;;;;;;;33.80;7.55;;;8.20;99.90;;;;;;5071278;28;20063;-71
2023/03/13 00:03:11;;;;;;;40.08;6.93;;;8.30;99.90;;;;;;5070917;28;20032;-71
2023/03/13 00:05:37;;;;;;;32.08;6.68;;;8.20;99.90;;;;;;5071153;28;20074;-71
2023/03/13 00:08:03;;;;;;;33.03;6.55;;;8.20;99.90;;;;;;5067548;28;20041;-71
2023/03/13 00:10:28;;;;;;;39.50;7.00;;;8.20;99.90;;;;;;5069785;28;20071;-71
2023/03/13 00:12:54;;;;;;;35.33;6.72;;;8.20;99.90;;;;;;5064549;28;20169;-71
2023/03/13 00:15:20;;;;;;;32.00;6.53;;;8.20;99.90;;;;;;5069343;28;20059;-71
2023/03/13 00:17:45;;;;;;;46.13;8.18;;;8.20;99.90;;;;;;5070755;28;20123;-72
2023/03/13 00:20:11;;;;;;;42.42;7.63;;;8.20;99.90;;;;;;5060944;28;20162;-71
2023/03/13 00:22:37;;;;;;;29.25;6.85;;;8.10;99.90;;;;;;5063740;28;20048;-72
2023/03/13 00:25:02;;;;;;;29.77;6.57;;;8.10;99.90;;;;;;5069812;28;20036;-71
2023/03/13 00:27:33;;;;;;;48.90;7.72;;;8.20;99.90;;;;;;5070288;28;20076;-72
2023/03/13 00:29:58;;;;;;;35.65;7.32;;;8.20;99.90;;;;;;5047549;28;20458;-71
2023/03/13 00:32:24;;;;;;;28.75;6.47;;;8.20;99.90;;;;;;5068741;28;20036;-71
2023/03/13 00:34:50;;;;;;;42.45;7.70;;;8.10;99.90;;;;;;5074224;28;20036;-71
2023/03/13 00:37:15;;;;;;;43.22;6.75;;;8.20;99.90;;;;;;5072120;28;20127;-72
2023/03/13 00:39:41;;;;;;;40.60;8.40;;;8.10;99.90;;;;;;5065550;28;20426;-71
2023/03/13 00:42:07;;;;;;;45.00;8.68;;;8.30;99.90;;;;;;5065404;28;20041;-70
2023/03/13 00:44:32;;;;;;;41.90;7.18;;;8.10;99.90;;;;;;5064051;28;20127;-71
2023/03/13 00:46:58;;;;;;;36.00;7.22;;;8.10;99.90;;;;;;5058671;28;20048;-73
2023/03/13 00:49:24;;;;;;;49.22;8.02;;;8.10;99.90;;;;;;5063846;28;20501;-71
2023/03/13 00:51:49;;;;;;;41.15;7.50;;;8.00;99.90;;;;;;5069755;28;20082;-71
2023/03/13 00:54:15;;;;;;;39.10;7.85;;;8.10;99.90;;;;;;5073632;28;20039;-72
2023/03/13 00:56:40;;;;;;;42.15;8.50;;;8.10;99.90;;;;;;5054619;28;20048;-71
2023/03/13 00:59:06;;;;;;;44.05;8.77;;;8.00;99.90;;;;;;5068109;28;20044;-71
2023/03/13 01:01:34;;;;;;;40.15;8.25;;;8.00;99.90;;;;;;5071092;28;20106;-71
2023/03/13 01:04:05;;;;;;;43.28;8.70;;;8.00;99.90;;;;;;5066086;28;20043;-71
2023/03/13 01:06:33;;;;;;;45.67;7.53;;;8.50;99.90;;;;;;5062950;28;20043;-71
2023/03/13 01:08:59;;;;;;;44.70;8.30;;;8.10;99.90;;;;;;5069891;28;20341;-71
2023/03/13 01:11:30;;;;;;;48.13;8.55;;;8.00;99.90;;;;;;5069813;28;20124;-71
2023/03/13 01:14:02;;;;;;;45.95;9.20;;;8.10;99.90;;;;;;5062707;28;20113;-72
2023/03/13 01:16:30;;;;;;;29.92;6.85;;;8.10;99.90;;;;;;5069803;28;20047;-71
2023/03/13 01:18:59;;;;;;;47.80;8.57;;;8.00;99.90;;;;;;5056822;28;20040;-71
2023/03/13 01:21:25;;;;;;;40.55;8.13;;;8.10;99.90;;;;;;5068921;28;20063;-70
2023/03/13 01:23:52;;;;;;;49.42;7.78;;;8.10;99.90;;;;;;5071750;28;20044;-70
2023/03/13 01:26:19;;;;;;;40.45;7.93;;;8.10;99.90;;;;;;5070855;28;20446;-71
2023/03/13 01:28:44;;;;;;;54.45;8.57;;;8.10;99.90;;;;;;5067620;28;20564;-72
2023/03/13 01:31:14;;;;;;;51.38;8.10;;;8.10;99.90;;;;;;5066491;28;20106;-71
2023/03/13 01:33:40;;;;;;;36.00;7.68;;;8.10;99.90;;;;;;5070870;28;20041;-72
2023/03/13 01:36:07;;;;;;;37.53;7.93;;;8.10;99.90;;;;;;5070077;28;20125;-71
2023/03/13 01:38:33;;;;;;;50.83;8.50;;;8.10;99.90;;;;;;5070141;28;20051;-72
2023/03/13 01:40:59;;;;;;;46.28;7.75;;;8.10;99.90;;;;;;5066774;28;20131;-71
2023/03/13 01:43:32;;;;;;;46.65;8.60;;;8.10;99.90;;;;;;5068860;28;20037;-71
2023/03/13 01:46:12;;;;;;;36.50;7.70;;;8.10;99.90;;;;;;5069268;28;20465;-70
2023/03/13 01:49:15;;;;;;;49.72;8.80;;;8.00;99.90;;;;;;5067638;28;20048;-70
2023/03/13 01:52:07;;;;;;;46.80;7.80;;;8.10;99.90;;;;;;5071212;28;20044;-70
2023/03/13 01:54:35;;;;;;;34.30;7.90;;;8.10;99.90;;;;;;5070171;28;20110;-71
2023/03/13 01:57:06;;;;;;;;;;;8.10;99.90;;;;;;5071450;28;20052;-71
2023/03/13 02:00:06;;;;;;;40.83;8.10;;;8.10;99.90;;;;;;5068158;28;19924;-72
2023/03/13 02:02:34;;;;;;;40.83;7.90;;;8.10;99.90;;;;;;5072366;28;20141;-71
2023/03/13 02:05:01;;;;;;;47.13;8.88;;;8.10;99.90;;;;;;5057203;28;20162;-71
2023/03/13 02:07:33;;;;;;;38.65;7.53;;;8.10;99.90;;;;;;5069088;28;20044;-72
2023/03/13 02:09:59;;;;;;;36.97;7.53;;;8.10;99.90;;;;;;5066581;28;20040;-71
2023/03/13 02:12:31;;;;;;;40.33;7.80;;;8.10;99.90;;;;;;5060917;28;20116;-72
2023/03/13 02:15:04;;;;;;;39.40;7.50;;;8.10;99.90;;;;;;5067618;28;20043;-71
2023/03/13 02:17:32;;;;;;;43.25;7.43;;;8.10;99.90;;;;;;5068923;28;20041;-72
2023/03/13 02:19:58;;;;;;;40.83;8.35;;;8.10;99.90;;;;;;5057391;28;20095;-72
2023/03/13 02:22:46;;;;;;;37.65;7.97;;;8.10;99.90;;;;;;5066371;28;20036;-72
2023/03/13 02:25:22;;;;;;;46.65;8.80;;;8.10;99.90;;;;;;5068921;28;20345;-72
2023/03/13 02:27:56;;;;;;;47.30;8.45;;;8.10;99.90;;;;;;5069895;28;20132;-72
2023/03/13 02:30:22;;;;;;;40.22;7.55;;;8.10;99.90;;;;;;5069663;28;20072;-72
2023/03/13 02:32:47;;;;;;;37.63;8.27;;;8.20;99.90;;;;;;5067414;28;20044;-73
2023/03/13 02:35:16;;;;;;;33.35;8.40;;;8.10;99.90;;;;;;5070009;28;20037;-72
2023/03/13 02:37:45;;;;;;;39.00;8.35;;;8.10;99.90;;;;;;5058429;28;20153;-71
2023/03/13 02:40:15;;;;;;;34.47;7.97;;;8.10;99.90;;;;;;5065889;28;20049;-72
2023/03/13 02:42:43;;;;;;;38.47;7.45;;;8.10;99.90;;;;;;5066258;28;20048;-72
2023/03/13 02:45:12;;;;;;;39.38;9.25;;;8.10;99.90;;;;;;5066168;28;20045;-73
2023/03/13 02:47:37;;;;;;;26.83;7.85;;;8.10;99.90;;;;;;5067835;28;20048;-72
2023/03/13 02:50:04;;;;;;;30.95;7.53;;;8.10;99.90;;;;;;5058836;28;20593;-73
2023/03/13 02:52:36;;;;;;;32.28;7.47;;;8.20;99.90;;;;;;5067765;28;20048;-72
2023/03/13 02:55:09;;;;;;;28.30;7.53;;;8.10;99.90;;;;;;5067437;28;20040;-73
2023/03/13 02:57:35;;;;;;;23.48;7.18;;;8.10;99.90;;;;;;5069550;28;20072;-71
2023/03/13 03:00:03;;;;;;;34.38;8.43;;;8.20;99.90;;;;;;5071095;28;20465;-71
2023/03/13 03:02:29;;;;;;;24.80;7.95;;;8.20;99.90;;;;;;5070658;28;20040;-71
2023/03/13 03:04:55;;;;;;;26.35;6.40;;;8.20;99.90;;;;;;5070328;28;20095;-72
2023/03/13 03:07:20;;;;;;;23.75;6.88;;;8.20;99.90;;;;;;5070344;28;20039;-70
2023/03/13 03:09:46;;;;;;;18.40;6.15;;;8.50;99.90;;;;;;5064664;28;20049;-72
2023/03/13 03:12:11;;;;;;;20.60;6.25;;;8.20;99.90;;;;;;5070865;28;20063;-71
2023/03/13 03:14:37;;;;;;;29.08;7.03;;;8.30;99.90;;;;;;5072771;28;20144;-72
2023/03/13 03:17:03;;;;;;;24.50;6.50;;;8.30;99.90;;;;;;5071755;28;20086;-71
2023/03/13 03:19:29;;;;;;;18.88;6.35;;;8.30;99.90;;;;;;5074514;28;20040;-71
2023/03/13 03:21:54;;;;;;;20.10;6.35;;;8.30;99.90;;;;;;5064397;28;20316;-72
2023/03/13 03:24:20;;;;;;;17.83;6.13;;;8.30;99.90;;;;;;5071785;28;20040;-71
2023/03/13 03:26:45;;;;;;;16.30;5.85;;;8.40;99.90;;;;;;5074773;28;20064;-72
2023/03/13 03:29:11;;;;;;;15.60;5.68;;;8.40;99.90;;;;;;5072320;28;20043;-72
2023/03/13 03:31:37;;;;;;;14.27;5.43;;;8.40;99.90;;;;;;5065751;28;20127;-71
2023/03/13 03:34:03;;;;;;;17.67;6.35;;;8.40;99.90;;;;;;5070318;28;20090;-72
2023/03/13 03:36:28;;;;;;;15.25;5.15;;;8.40;99.90;;;;;;5068576;28;20146;-71
2023/03/13 03:38:54;;;;;;;14.27;5.80;;;8.50;99.90;;;;;;5070035;28;20037;-72
2023/03/13 03:41:20;;;;;;;13.07;6.32;;;8.50;99.90;;;;;;5068826;28;20036;-71
2023/03/13 03:43:46;;;;;;;15.25;6.32;;;8.50;99.90;;;;;;5063163;28;20056;-71
2023/03/13 03:46:13;;;;;;;14.40;6.00;;;8.60;99.90;;;;;;5074643;28;20477;-72
2023/03/13 03:48:39;;;;;;;19.42;5.68;;;8.60;99.90;;;;;;5063430;28;20070;-71
2023/03/13 03:51:05;;;;;;;17.85;6.20;;;8.50;99.90;;;;;;5073395;28;20045;-72
2023/03/13 03:53:31;;;;;;;13.15;5.63;;;8.50;99.90;;;;;;5073467;28;20124;-71
2023/03/13 03:55:57;;;;;;;17.77;6.20;;;8.50;99.90;;;;;;5074116;28;20102;-72
2023/03/13 03:58:23;;;;;;;14.65;6.28;;;8.60;99.90;;;;;;5070617;28;20127;-73
2023/03/13 04:00:48;;;;;;;15.18;5.82;;;8.60;99.90;;;;;;5072924;28;20041;-72
2023/03/13 04:03:15;;;;;;;10.35;5.88;;;8.60;99.90;;;;;;5072793;28;20029;-72
2023/03/13 04:05:41;;;;;;;15.52;6.15;;;8.70;99.90;;;;;;5071638;28;20041;-73
2023/03/13 04:08:07;;;;;;;14.73;6.07;;;8.60;99.90;;;;;;5070739;28;20447;-73
2023/03/13 04:10:33;;;;;;;11.95;5.55;;;8.60;99.90;;;;;;5072399;28;20046;-72
2023/03/13 04:12:59;;;;;;;11.20;5.25;;;8.70;99.90;;;;;;5070636;28;20530;-71
2023/03/13 04:15:24;;;;;;;17.52;5.78;;;8.70;99.90;;;;;;5068947;28;20048;-71
2023/03/13 04:17:50;;;;;;;11.45;6.15;;;8.80;99.90;;;;;;5071537;28;20063;-70
2023/03/13 04:20:16;;;;;;;12.10;5.68;;;8.80;99.90;;;;;;5067634;28;20114;-71
2023/03/13 04:22:42;;;;;;;11.98;5.72;;;8.80;99.90;;;;;;5072683;28;20485;-71
2023/03/13 04:25:08;;;;;;;8.32;4.88;;;8.90;99.90;;;;;;5058560;28;20102;-70
2023/03/13 04:27:34;;;;;;;11.43;4.95;;;8.90;99.90;;;;;;5072102;28;20342;-69
2023/03/13 04:29:59;;;;;;;12.07;6.03;;;9.00;99.90;;;;;;5064226;28;20040;-70
2023/03/13 04:32:26;;;;;;;12.23;6.63;;;9.10;99.90;;;;;;5070842;28;20041;-70
2023/03/13 04:34:51;;;;;;;8.98;5.70;;;9.20;99.90;;;;;;5070833;28;20044;-69
2023/03/13 04:37:17;;;;;;;14.05;7.32;;;9.20;99.90;;;;;;5070302;28;20043;-70
2023/03/13 04:39:43;;;;;;;14.95;7.97;;;9.30;99.90;;;;;;5069389;28;20067;-70
2023/03/13 04:42:10;;;;;;;18.30;8.23;;;9.30;99.90;;;;;;5070223;28;20474;-71
2023/03/13 04:44:36;;;;;;;12.60;8.15;;;9.40;99.90;;;;;;5071659;28;20060;-70
2023/03/13 04:47:01;;;;;;;16.40;9.25;;;9.40;99.90;;;;;;5071179;28;20497;-71
2023/03/13 04:49:27;;;;;;;15.75;9.10;;;9.40;99.90;;;;;;5068168;28;20048;-70
2023/03/13 04:51:53;;;;;;;18.20;9.27;;;9.50;99.90;;;;;;5065252;28;20557;-70
2023/03/13 04:54:18;;;;;;;19.33;11.18;;;9.50;99.90;;;;;;5065423;28;20037;-70
2023/03/13 04:56:44;;;;;;;17.88;10.27;;;9.60;99.90;;;;;;5061654;28;20049;-70
2023/03/13 04:59:11;;;;;;;18.48;11.02;;;9.60;99.90;;;;;;5068396;28;20127;-70
2023/03/13 05:01:36;;;;;;;20.65;11.10;;;9.70;99.90;;;;;;5062363;28;20036;-70
2023/03/13 05:04:02;;;;;;;16.30;10.35;;;9.80;99.90;;;;;;5068015;28;20043;-70
2023/03/13 05:06:28;;;;;;;21.08;10.82;;;9.80;99.90;;;;;;5063663;28;20394;-70
2023/03/13 05:08:54;;;;;;;21.60;10.30;;;9.80;99.90;;;;;;5069478;28;20076;-71
2023/03/13 05:11:19;;;;;;;17.13;10.13;;;9.90;99.90;;;;;;5067181;28;20033;-70
2023/03/13 05:13:45;;;;;;;22.38;10.68;;;9.90;99.90;;;;;;5068868;28;20131;-71
2023/03/13 05:16:11;;;;;;;18.40;10.00;;;10.00;99.90;;;;;;5064204;28;20037;-71
2023/03/13 05:18:38;;;;;;;20.83;9.45;;;10.00;99.90;;;;;;5069185;28;20040;-70
2023/03/13 05:21:04;;;;;;;21.50;11.43;;;10.00;99.90;;;;;;5071240;28;20479;-70
2023/03/13 05:23:29;;;;;;;21.88;10.25;;;10.10;99.90;;;;;;5068694;28;20068;-70
2023/03/13 05:25:55;;;;;;;22.13;10.48;;;10.20;99.90;;;;;;5070997;28;20512;-71
2023/03/13 05:28:20;;;;;;;23.40;10.13;;;10.30;99.90;;;;;;5065484;28;20112;-71
2023/03/13 05:30:46;;;;;;;26.67;10.95;;;10.30;99.90;;;;;;5066152;28;20044;-70
2023/03/13 05:33:12;;;;;;;30.65;9.25;;;10.30;99.90;;;;;;5070830;28;20367;-70
2023/03/13 05:35:38;;;;;;;19.23;9.38;;;10.40;99.90;;;;;;5063299;28;20083;-70
2023/03/13 05:38:03;;;;;;;17.90;7.35;;;10.50;99.90;;;;;;5071640;28;20127;-71
2023/03/13 05:40:29;;;;;;;20.95;6.70;;;10.50;99.90;;;;;;5058977;28;20397;-71
2023/03/13 05:42:55;;;;;;;17.50;6.18;;;10.50;99.90;;;;;;5067696;28;20079;-70
2023/03/13 05:45:21;;;;;;;17.70;5.85;;;10.60;99.90;;;;;;5054071;28;20520;-71
2023/03/13 05:47:47;;;;;;;10.73;6.05;;;10.60;99.90;;;;;;5071860;28;20044;-71
2023/03/13 05:50:13;;;;;;;20.20;7.60;;;10.70;99.90;;;;;;5069166;28;20055;-71
2023/03/13 05:52:38;;;;;;;14.40;6.18;;;10.70;99.90;;;;;;5077840;28;20049;-71
2023/03/13 05:55:04;;;;;;;16.50;6.03;;;10.70;99.90;;;;;;5070807;28;20119;-71
2023/03/13 05:57:30;;;;;;;16.88;6.80;;;10.70;99.90;;;;;;5056895;28;20382;-71
2023/03/13 05:59:56;;;;;;;18.35;6.38;;;10.70;99.90;;;;;;5062234;28;20050;-71
2023/03/13 06:02:21;;;;;;;19.55;6.82;;;10.70;99.90;;;;;;5063620;28;20037;-70
2023/03/13 06:04:47;;;;;;;17.27;7.13;;;10.60;99.90;;;;;;5056670;28;20036;-70
2023/03/13 06:07:12;;;;;;;18.38;6.80;;;10.70;99.90;;;;;;5068498;28;20075;-70
2023/03/13 06:09:39;;;;;;;22.85;6.82;;;10.90;99.90;;;;;;5065028;28;20400;-70
2023/03/13 06:12:06;;;;;;;19.42;6.38;;;10.70;99.90;;;;;;5064500;28;20048;-69
2023/03/13 06:14:32;;;;;;;24.35;7.32;;;10.70;99.90;;;;;;5069241;28;20084;-70
2023/03/13 06:16:58;;;;;;;18.35;6.30;;;10.70;99.90;;;;;;5060048;28;20514;-70
2023/03/13 06:19:24;;;;;;;25.88;6.32;;;10.80;99.90;;;;;;5062351;28;20485;-71
2023/03/13 06:21:50;;;;;;;22.55;7.05;;;10.70;99.90;;;;;;5062676;28;20064;-70
2023/03/13 06:24:16;;;;;;;20.67;6.25;;;10.70;99.90;;;;;;5066716;28;20076;-70
2023/03/13 06:26:41;;;;;;;22.63;7.00;;;10.80;99.90;;;;;;5066511;28;20130;-70
2023/03/13 06:29:08;;;;;;;19.73;6.82;;;10.80;99.90;;;;;;5069700;28;20036;-71
2023/03/13 06:31:34;;;;;;;20.25;6.70;;;10.70;99.90;;;;;;5068626;28;20131;-70
2023/03/13 06:33:59;;;;;;;18.85;7.30;;;10.70;99.90;;;;;;5063905;28;20155;-70
2023/03/13 06:36:25;;;;;;;25.55;7.63;;;10.70;99.90;;;;;;5060402;28;20516;-71
2023/03/13 06:38:51;;;;;;;20.00;7.15;;;10.70;99.90;;;;;;5053899;28;20033;-70
2023/03/13 06:41:17;;;;;;;20.30;6.95;;;10.70;99.90;;;;;;5063098;28;20109;-70
2023/03/13 06:43:43;;;;;;;23.25;7.22;;;10.70;99.90;;;;;;5064604;28;20124;-70
2023/03/13 06:46:16;;;;;;;20.83;8.52;;;10.80;99.90;;;;;;5071084;28;20037;-70
2023/03/13 06:48:43;;;;;;;17.75;6.90;;;10.90;99.90;;;;;;5066778;28;20444;-70
2023/03/13 06:51:13;;;;;;;16.00;7.88;;;10.90;99.90;;;;;;5070320;28;20481;-72
2023/03/13 06:53:39;;;;;;;18.80;7.70;;;10.80;99.90;;;;;;5069825;28;20070;-71
2023/03/13 06:56:05;;;;;;;15.70;7.38;;;10.90;99.90;;;;;;5063450;28;20090;-72
2023/03/13 06:58:30;;;;;;;20.00;7.38;;;10.90;99.90;;;;;;5066586;28;20143;-70
2023/03/13 07:00:56;;;;;;;21.95;7.82;;;11.00;99.90;;;;;;5066601;28;20032;-71
2023/03/13 07:03:21;;;;;;;16.50;7.55;;;10.90;99.90;;;;;;5061955;28;20052;-70
2023/03/13 07:05:47;;;;;;;20.23;7.05;;;11.00;99.90;;;;;;5066097;28;20052;-71
2023/03/13 07:08:13;;;;;;;24.35;6.95;;;11.00;99.90;;;;;;5067727;28;20082;-71
2023/03/13 07:10:41;;;;;;;19.02;6.63;;;11.00;99.90;;;;;;5066582;28;20086;-71
2023/03/13 07:13:06;;;;;;;21.98;6.40;;;11.00;99.90;;;;;;5068954;28;20139;-70
2023/03/13 07:15:32;;;;;;;17.63;6.20;;;11.00;99.90;;;;;;5065723;28;20131;-69
2023/03/13 07:17:58;;;;;;;18.13;5.63;;;11.10;99.90;;;;;;5054575;28;20505;-69
2023/03/13 07:20:23;;;;;;;21.88;6.32;;;11.10;99.90;;;;;;5054633;28;20032;-70
2023/03/13 07:22:52;;;;;;;17.67;6.43;;;11.20;99.90;;;;;;5059895;28;20045;-69
2023/03/13 07:25:18;;;;;;;19.17;5.93;;;11.10;99.90;;;;;;5051945;28;20045;-69
2023/03/13 07:27:44;;;;;;;16.55;5.97;;;11.30;99.90;;;;;;5060012;28;20063;-70
2023/03/13 07:30:10;;;;;;;27.73;6.40;;;11.20;99.90;;;;;;5061496;28;20075;-69
2023/03/13 07:32:37;;;;;;;16.65;5.82;;;11.10;99.90;;;;;;5071200;28;20041;-70
2023/03/13 07:35:03;;;;;;;21.48;6.10;;;11.20;99.90;;;;;;5072263;28;20131;-70
2023/03/13 07:37:29;;;;;;;18.30;6.25;;;11.20;99.90;;;;;;5066511;28;20040;-70
2023/03/13 07:39:54;;;;;;;14.23;5.32;;;11.30;99.90;;;;;;5069960;28;20062;-69
2023/03/13 07:42:20;;;;;;;26.67;6.22;;;11.20;99.90;;;;;;5070225;28;20036;-69
2023/03/13 07:44:46;;;;;;;16.45;6.00;;;11.20;99.90;;;;;;5072050;28;20041;-69
2023/03/13 07:47:11;;;;;;;20.77;6.05;;;11.20;99.90;;;;;;5072812;28;20396;-70
2023/03/13 07:49:40;;;;;;;21.40;6.18;;;11.20;99.90;;;;;;5068667;28;20140;-70
2023/03/13 07:52:06;;;;;;;17.00;6.72;;;11.20;99.90;;;;;;5074249;28;20123;-70
2023/03/13 07:54:32;;;;;;;19.60;5.75;;;11.20;99.90;;;;;;5074176;28;20123;-69
2023/03/13 07:56:57;;;;;;;10.70;5.43;;;11.10;99.90;;;;;;5064225;28;20045;-69
2023/03/13 07:59:23;;;;;;;10.90;4.70;;;11.10;99.90;;;;;;5054416;28;20048;-69
2023/03/13 08:01:49;;;;;;;17.25;5.00;;;11.10;99.90;;;;;;5054507;28;20041;-69
2023/03/13 08:04:15;;;;;;;17.13;5.60;;;11.20;99.90;;;;;;5045963;28;20127;-70
2023/03/13 08:06:40;;;;;;;15.00;5.30;;;11.80;99.90;;;;;;5068543;28;20051;-71
2023/03/13 08:09:06;;;;;;;16.15;4.85;;;11.10;99.90;;;;;;5064478;28;20044;-69
2023/03/13 08:11:32;;;;;;;13.63;4.57;;;11.10;99.90;;;;;;5068195;28;20445;-70
2023/03/13 08:13:58;;;;;;;17.88;4.95;;;11.20;99.90;;;;;;5071000;28;20033;-70
2023/03/13 08:16:29;;;;;;;12.85;3.90;;;11.20;99.90;;;;;;5068317;28;20106;-71
2023/03/13 08:18:56;;;;;;;8.85;4.55;;;11.20;99.90;;;;;;5062804;28;20102;-70
2023/03/13 08:21:25;;;;;;;16.77;4.22;;;11.30;99.90;;;;;;5061729;28;20409;-70
2023/03/13 08:23:56;;;;;;;9.45;3.38;;;11.30;99.90;;;;;;5070845;28;20040;-71
2023/03/13 08:26:25;;;;;;;15.52;3.47;;;11.50;99.90;;;;;;5070089;28;20124;-70
2023/03/13 08:28:53;;;;;;;10.38;3.50;;;11.40;99.90;;;;;;5071722;28;20102;-71
2023/03/13 08:31:24;;;;;;;12.23;3.53;;;11.50;99.90;;;;;;5071623;28;20047;-70
2023/03/13 08:33:50;;;;;;;12.13;3.55;;;11.60;99.90;;;;;;5072910;28;20045;-70
2023/03/13 08:36:26;;;;;;;10.27;3.97;;;11.60;99.90;;;;;;5070807;28;20065;-70
2023/03/13 08:38:53;;;;;;;9.77;2.90;;;11.80;99.90;;;;;;5071483;28;20044;-70
2023/03/13 08:41:25;;;;;;;9.82;3.20;;;11.90;99.90;;;;;;5069486;28;20048;-70
2023/03/13 08:43:57;;;;;;;10.23;3.25;;;12.10;99.90;;;;;;5060552;28;20048;-71
2023/03/13 08:46:23;;;;;;;8.52;2.53;;;12.20;99.90;;;;;;5066787;28;20033;-70
2023/03/13 08:48:50;;;;;;;9.13;2.83;;;12.20;99.90;;;;;;5072654;28;20186;-71
2023/03/13 08:51:17;;;;;;;11.07;2.35;;;12.30;99.90;;;;;;5073917;28;20059;-71
2023/03/13 08:53:43;;;;;;;11.07;2.30;;;12.40;99.90;;;;;;5069623;28;20047;-69
2023/03/13 08:56:12;;;;;;;10.40;3.13;;;12.60;99.90;;;;;;5072631;28;20047;-69
2023/03/13 08:58:38;;;;;;;8.60;2.55;;;12.70;99.90;;;;;;5068835;28;20049;-70
2023/03/13 09:01:06;;;;;;;7.63;2.20;;;12.90;99.90;;;;;;5068645;28;20045;-69
2023/03/13 09:03:33;;;;;;;9.10;2.00;;;12.80;99.90;;;;;;5070612;28;20387;-69
2023/03/13 09:06:00;;;;;;;10.63;2.50;;;13.00;99.90;;;;;;5070977;28;20079;-70
2023/03/13 09:08:26;;;;;;;8.25;2.60;;;13.00;99.90;;;;;;5049093;28;20040;-69
2023/03/13 09:11:00;;;;;;;7.10;2.20;;;13.10;99.90;;;;;;5065299;28;20054;-70
2023/03/13 09:13:27;;;;;;;7.63;2.03;;;13.10;99.90;;;;;;5066875;28;20105;-70
2023/03/13 09:15:58;;;;;;;11.88;3.05;;;13.10;99.90;;;;;;5059152;28;20041;-69
2023/03/13 09:18:24;;;;;;;10.90;2.15;;;13.10;99.90;;;;;;5071019;28;20036;-70
2023/03/13 09:20:50;;;;;;;8.85;2.08;;;13.00;99.90;;;;;;5053376;28;20165;-69
2023/03/13 09:23:16;;;;;;;8.43;2.35;;;12.90;99.90;;;;;;5059706;28;20044;-70
2023/03/13 09:25:41;;;;;;;6.32;2.30;;;12.90;99.90;;;;;;5053474;28;20148;-69
2023/03/13 09:28:07;;;;;;;14.25;2.50;;;12.80;99.90;;;;;;5072506;28;20083;-70
2023/03/13 09:30:32;;;;;;;18.63;3.00;;;12.80;99.90;;;;;;5070082;28;20049;-71
2023/03/13 09:32:58;;;;;;;10.05;3.10;;;12.80;99.90;;;;;;5054416;28;20113;-69
2023/03/13 09:35:24;;;;;;;11.30;2.92;;;12.80;99.90;;;;;;5071192;28;20500;-70
2023/03/13 09:37:49;;;;;;;11.90;3.13;;;12.70;99.90;;;;;;5067941;28;20036;-70
2023/03/13 09:40:19;;;;;;;13.15;3.20;;;12.60;99.90;;;;;;5065596;28;20347;-69
2023/03/13 09:42:49;;;;;;;12.18;3.58;;;12.60;99.90;;;;;;5072559;28;20451;-69
2023/03/13 09:45:21;;;;;;;14.02;3.15;;;12.50;99.90;;;;;;5069910;28;20044;-70
2023/03/13 09:47:52;;;;;;;12.63;3.45;;;12.60;99.90;;;;;;5071708;28;20474;-70
2023/03/13 09:50:32;;;;;;;12.93;3.80;;;12.60;99.90;;;;;;5054596;28;20071;-71
2023/03/13 09:53:35;;;;;;;18.90;3.88;;;12.60;99.90;;;;;;5071153;28;20036;-71
2023/03/13 09:56:04;;;;;;;16.33;3.42;;;12.70;99.90;;;;;;5081035;28;20056;-71
2023/03/13 09:58:31;;;;;;;15.77;3.35;;;12.70;99.90;;;;;;5070817;28;20099;-70
2023/03/13 10:01:05;;;;;;;15.45;3.22;;;12.70;99.90;;;;;;5071768;28;20036;-70
2023/03/13 10:03:49;;;;;;;14.80;3.00;;;12.70;99.90;;;;;;5072116;28;20055;-70
2023/03/13 10:06:20;;;;;;;11.10;2.90;;;12.90;99.90;;;;;;5071964;28;20059;-70
2023/03/13 10:08:45;;;;;;;13.68;3.00;;;13.20;99.90;;;;;;5062453;28;20033;-71
2023/03/13 10:11:45;;;;;;;15.38;3.85;;;13.40;99.90;;;;;;5052183;28;20159;-72
2023/03/13 10:14:27;;;;;;;11.02;2.95;;;13.70;99.90;;;;;;5068728;28;20048;-71
2023/03/13 10:17:00;;;;;;;18.42;3.40;;;14.10;99.90;;;;;;5064294;28;20049;-71
2023/03/13 10:19:33;;;;;;;18.10;3.28;;;14.30;99.90;;;;;;5069312;28;20098;-70
2023/03/13 10:22:02;;;;;;;14.63;3.20;;;14.50;99.90;;;;;;5073787;28;20044;-70
2023/03/13 10:24:39;;;;;;;14.95;3.72;;;14.70;99.90;;;;;;5066591;28;20052;-71
2023/03/13 10:27:12;;;;;;;19.67;3.83;;;14.80;99.90;;;;;;5053799;28;20052;-72
2023/03/13 10:29:38;;;;;;;18.52;4.10;;;14.80;99.90;;;;;;5063022;28;20052;-70
2023/03/13 10:32:07;;;;;;;19.38;4.15;;;15.00;99.90;;;;;;5069955;28;20052;-71
2023/03/13 10:34:53;;;;;;;18.13;3.80;;;15.00;99.90;;;;;;5071411;28;20051;-71
2023/03/13 10:37:30;;;;;;;17.00;3.72;;;14.90;99.90;;;;;;5070810;28;20081;-71
2023/03/13 10:40:23;;;;;;;17.70;3.30;;;14.80;99.90;;;;;;5070126;28;20148;-71
2023/03/13 10:42:50;;;;;;;17.60;3.85;;;14.70;99.90;;;;;;5072888;28;20478;-71
2023/03/13 10:45:19;;;;;;;19.67;4.40;;;14.60;99.90;;;;;;5058805;28;20410;-70
2023/03/13 10:47:58;;;;;;;22.92;4.53;;;14.60;99.90;;;;;;5068523;28;20712;-70
2023/03/13 10:50:26;;;;;;;21.42;4.10;;;14.60;99.90;;;;;;5070851;28;20055;-71
2023/03/13 10:52:53;;;;;;;17.90;4.15;;;14.50;99.90;;;;;;5070675;28;20098;-70
2023/03/13 10:55:24;;;;;;;18.70;3.57;;;14.50;99.90;;;;;;5052456;28;20041;-71
2023/03/13 10:57:56;;;;;;;21.80;5.07;;;14.30;99.90;;;;;;5063319;28;20317;-70
2023/03/13 11:00:35;;;;;;;21.60;4.80;;;14.20;99.90;;;;;;5068429;28;20760;-70
2023/03/13 11:03:19;;;;;;;;;;;14.20;99.90;;;;;;5067092;28;20424;-71
2023/03/13 11:06:05;;;;;;;22.58;4.55;;;14.30;99.90;;;;;;5063225;28;19965;-70
2023/03/13 11:08:41;;;;;;;18.33;4.13;;;14.60;99.90;;;;;;5065513;28;20512;-71
2023/03/13 11:11:17;;;;;;;20.65;3.55;;;14.50;99.90;;;;;;5068598;28;20051;-70
2023/03/13 11:13:44;;;;;;;21.75;4.57;;;14.50;99.90;;;;;;5062266;28;20048;-70
2023/03/13 11:16:12;;;;;;;18.40;4.25;;;14.40;99.90;;;;;;5062295;28;20519;-70
2023/03/13 11:18:51;;;;;;;17.02;3.83;;;14.40;99.90;;;;;;5069948;28;20044;-70
2023/03/13 11:21:26;;;;;;;18.70;4.30;;;14.60;99.90;;;;;;5045392;28;20033;-71
2023/03/13 11:24:01;;;;;;;19.13;3.53;;;14.80;99.90;;;;;;5055822;28;20408;-71
2023/03/13 11:26:32;;;;;;;19.15;3.92;;;14.80;99.90;;;;;;5062965;28;20250;-71
2023/03/13 11:29:07;;;;;;;17.15;3.38;;;14.60;99.90;;;;;;5061359;28;20535;-71
2023/03/13 11:31:39;;;;;;;18.75;4.00;;;14.60;99.90;;;;;;5054359;28;20118;-71
2023/03/13 11:34:19;;;;;;;15.95;3.53;;;14.60;99.90;;;;;;5064161;28;20183;-71
2023/03/13 11:36:54;;;;;;;14.25;3.67;;;14.60;99.90;;;;;;5071682;28;20033;-71
2023/03/13 11:39:41;;;;;;;19.52;3.13;;;14.50;99.90;;;;;;5066479;28;20040;-71
2023/03/13 11:42:12;;;;;;;13.50;3.25;;;14.40;99.90;;;;;;5067291;28;20048;-71
2023/03/13 11:44:56;;;;;;;10.93;3.05;;;14.40;99.90;;;;;;5071424;28;20044;-70
2023/03/13 11:47:32;;;;;;;10.25;2.85;;;14.40;99.90;;;;;;5071384;28;20040;-71
2023/03/13 11:50:25;;;;;;;12.80;3.25;;;14.40;99.90;;;;;;5072255;28;20051;-72
2023/03/13 11:53:34;;;;;;;14.07;2.95;;;14.30;99.90;;;;;;5070870;28;20202;-70
2023/03/13 11:56:16;;;;;;;13.35;3.05;;;14.30;99.90;;;;;;5060840;28;20580;-70
2023/03/13 11:59:02;;;;;;;14.95;3.63;;;14.30;99.90;;;;;;5070290;28;20522;-69
2023/03/13 12:01:34;;;;;;;12.18;3.10;;;14.40;99.90;;;;;;5069420;28;20047;-69
2023/03/13 12:04:11;;;;;;;14.32;3.95;;;14.50;99.90;;;;;;5057044;28;20127;-69
2023/03/13 12:06:49;;;;;;;15.10;3.05;;;14.40;99.90;;;;;;5052702;28;20040;-69
2023/03/13 12:09:38;;;;;;;15.60;2.95;;;14.50;99.90;;;;;;5053235;28;20033;-70
2023/03/13 12:12:16;;;;;;;14.10;3.10;;;14.60;99.90;;;;;;5070858;28;20397;-70
2023/03/13 12:14:55;;;;;;;17.02;3.65;;;14.70;99.90;;;;;;5070497;28;20513;-69
2023/03/13 12:17:23;;;;;;;14.45;2.92;;;14.80;99.90;;;;;;5062944;28;20052;-69
2023/03/13 12:19:49;;;;;;;12.68;3.40;;;14.90;99.90;;;;;;5072558;28;20496;-69
2023/03/13 12:22:52;;;;;;;17.92;3.97;;;14.90;99.90;;;;;;5067202;28;20041;-71
2023/03/13 12:25:24;;;;;;;23.05;3.47;;;14.80;99.90;;;;;;5071070;28;20055;-70
2023/03/13 12:28:23;;;;;;;19.60;3.90;;;14.70;99.90;;;;;;5073695;28;20093;-70
2023/03/13 12:31:00;;;;;;;17.97;3.93;;;14.80;99.90;;;;;;5067082;28;20084;-70
2023/03/13 12:33:36;;;;;;;18.00;3.90;;;14.90;99.90;;;;;;5071005;28;20118;-69
2023/03/13 12:36:12;;;;;;;19.70;3.58;;;14.90;99.90;;;;;;5053550;28;20509;-70
2023/03/13 12:38:47;;;;;;;13.55;3.67;;;15.20;99.90;;;;;;5053287;28;20124;-71
2023/03/13 12:41:25;;;;;;;22.08;4.72;;;15.30;99.90;;;;;;5054001;28;20049;-70
2023/03/13 12:43:52;;;;;;;;;;;15.70;99.90;;;;;;5056691;28;20090;-70
2023/03/13 12:46:36;;;;;;;21.88;4.03;;;15.90;99.90;;;;;;5072111;28;19921;-70
2023/03/13 12:49:38;;;;;;;17.80;4.15;;;16.50;99.90;;;;;;5064405;28;20091;-71
2023/03/13 12:52:37;;;;;;;15.10;3.78;;;17.20;99.90;;;;;;5052291;28;20528;-70
2023/03/13 12:55:05;;;;;;;18.80;4.80;;;17.50;99.90;;;;;;5062500;28;20050;-70